sensor_id;sensor_type;location;lat;lon;timestamp;temperature;humidity
57030;DHT22;42920;45.306;20.448;2022-10-16T00:01:30;358.90;2329.60
57030;DHT22;42920;45.306;20.448;2022-10-16T00:03:57;358.90;2329.60
57030;DHT22;42920;45.306;20.448;2022-10-16T00:06:25;358.90;2329.60
57030;DHT22;42920;45.306;20.448;2022-10-16T00:08:52;358.90;2329.60
57030;DHT22;42920;45.306;20.448;2022-10-16T00:11:20;358.90;2329.60
57030;DHT22;42920;45.306;20.448;2022-10-16T00:13:47;358.90;2329.60
57030;DHT22;42920;45.306;20.448;2022-10-16T00:16:14;359.00;2329.60
57030;DHT22;42920;45.306;20.448;2022-10-16T00:18:40;359.00;2329.60
57030;DHT22;42920;45.306;20.448;2022-10-16T00:21:12;359.00;2329.60
57030;DHT22;42920;45.306;20.448;2022-10-16T00:23:38;359.00;2329.60
57030;DHT22;42920;45.306;20.448;2022-10-16T00:26:08;359.00;2329.60
57030;DHT22;42920;45.306;20.448;2022-10-16T00:28:34;359.00;2329.60
57030;DHT22;42920;45.306;20.448;2022-10-16T00:31:07;359.10;2329.60
57030;DHT22;42920;45.306;20.448;2022-10-16T00:33:33;359.10;2329.60
57030;DHT22;42920;45.306;20.448;2022-10-16T00:36:00;359.10;2329.60
57030;DHT22;42920;45.306;20.448;2022-10-16T00:38:26;359.20;2329.60
57030;DHT22;42920;45.306;20.448;2022-10-16T00:40:52;359.20;2329.60
57030;DHT22;42920;45.306;20.448;2022-10-16T00:43:50;359.20;2329.60
57030;DHT22;42920;45.306;20.448;2022-10-16T00:46:26;359.20;2329.60
57030;DHT22;42920;45.306;20.448;2022-10-16T00:51:35;359.30;2329.60
57030;DHT22;42920;45.306;20.448;2022-10-16T00:54:04;359.30;2329.60
57030;DHT22;42920;45.306;20.448;2022-10-16T00:56:32;359.30;2329.60
57030;DHT22;42920;45.306;20.448;2022-10-16T00:58:59;359.30;2329.60
57030;DHT22;42920;45.306;20.448;2022-10-16T01:01:27;359.20;2329.60
57030;DHT22;42920;45.306;20.448;2022-10-16T01:03:53;359.20;2329.60
57030;DHT22;42920;45.306;20.448;2022-10-16T01:09:28;359.20;2329.60
57030;DHT22;42920;45.306;20.448;2022-10-16T01:12:15;359.20;2329.60
57030;DHT22;42920;45.306;20.448;2022-10-16T01:14:58;359.20;2329.60
57030;DHT22;42920;45.306;20.448;2022-10-16T01:20:35;359.10;2329.60
57030;DHT22;42920;45.306;20.448;2022-10-16T01:28:41;359.00;2329.60
57030;DHT22;42920;45.306;20.448;2022-10-16T01:31:09;359.00;2329.60
57030;DHT22;42920;45.306;20.448;2022-10-16T01:33:45;359.00;2329.60
57030;DHT22;42920;45.306;20.448;2022-10-16T01:36:16;359.00;2329.60
57030;DHT22;42920;45.306;20.448;2022-10-16T01:38:48;358.80;2329.60
57030;DHT22;42920;45.306;20.448;2022-10-16T01:41:22;358.80;2329.60
57030;DHT22;42920;45.306;20.448;2022-10-16T01:43:57;358.80;2329.60
57030;DHT22;42920;45.306;20.448;2022-10-16T01:46:24;358.70;2329.60
57030;DHT22;42920;45.306;20.448;2022-10-16T01:48:51;358.70;2329.60
57030;DHT22;42920;45.306;20.448;2022-10-16T01:51:18;358.60;2329.60
57030;DHT22;42920;45.306;20.448;2022-10-16T01:53:49;358.60;2329.60
57030;DHT22;42920;45.306;20.448;2022-10-16T01:56:17;358.60;2329.60
57030;DHT22;42920;45.306;20.448;2022-10-16T01:58:51;358.50;2329.60
57030;DHT22;42920;45.306;20.448;2022-10-16T02:01:20;358.50;2329.60
57030;DHT22;42920;45.306;20.448;2022-10-16T02:03:50;358.50;2329.60
57030;DHT22;42920;45.306;20.448;2022-10-16T02:06:17;358.50;2329.60
57030;DHT22;42920;45.306;20.448;2022-10-16T02:08:43;358.40;2329.60
57030;DHT22;42920;45.306;20.448;2022-10-16T02:11:10;358.50;2329.60
57030;DHT22;42920;45.306;20.448;2022-10-16T02:13:46;358.40;2329.60
57030;DHT22;42920;45.306;20.448;2022-10-16T02:16:14;358.40;2329.60
57030;DHT22;42920;45.306;20.448;2022-10-16T02:18:41;333.70;2329.60
57030;DHT22;42920;45.306;20.448;2022-10-16T02:21:34;358.40;2329.60
57030;DHT22;42920;45.306;20.448;2022-10-16T02:24:24;358.40;2329.60
57030;DHT22;42920;45.306;20.448;2022-10-16T02:29:49;333.70;2329.60
57030;DHT22;42920;45.306;20.448;2022-10-16T02:32:20;333.60;2329.60
57030;DHT22;42920;45.306;20.448;2022-10-16T02:34:48;333.50;2329.60
57030;DHT22;42920;45.306;20.448;2022-10-16T02:37:15;333.50;2329.60
57030;DHT22;42920;45.306;20.448;2022-10-16T02:39:41;333.50;2329.60
57030;DHT22;42920;45.306;20.448;2022-10-16T02:42:14;333.40;2329.60
57030;DHT22;42920;45.306;20.448;2022-10-16T02:44:40;333.40;2329.60
57030;DHT22;42920;45.306;20.448;2022-10-16T02:47:06;333.40;2329.60
57030;DHT22;42920;45.306;20.448;2022-10-16T02:49:31;333.30;2329.60
57030;DHT22;42920;45.306;20.448;2022-10-16T02:51:57;333.40;2329.60
57030;DHT22;42920;45.306;20.448;2022-10-16T02:54:23;333.30;2329.60
57030;DHT22;42920;45.306;20.448;2022-10-16T02:56:49;333.30;2329.60
57030;DHT22;42920;45.306;20.448;2022-10-16T02:59:15;333.30;2329.60
57030;DHT22;42920;45.306;20.448;2022-10-16T03:01:41;333.30;2329.60
57030;DHT22;42920;45.306;20.448;2022-10-16T03:04:07;333.30;2329.60
57030;DHT22;42920;45.306;20.448;2022-10-16T03:06:33;333.30;2329.60
57030;DHT22;42920;45.306;20.448;2022-10-16T03:08:58;333.30;2329.60
57030;DHT22;42920;45.306;20.448;2022-10-16T03:11:24;333.30;2329.60
57030;DHT22;42920;45.306;20.448;2022-10-16T03:13:50;333.40;2329.60
57030;DHT22;42920;45.306;20.448;2022-10-16T03:16:15;333.30;2329.60
57030;DHT22;42920;45.306;20.448;2022-10-16T03:18:41;333.30;2329.60
57030;DHT22;42920;45.306;20.448;2022-10-16T03:21:07;333.30;2329.60
57030;DHT22;42920;45.306;20.448;2022-10-16T03:23:33;333.40;2329.60
57030;DHT22;42920;45.306;20.448;2022-10-16T03:25:58;333.50;2329.60
57030;DHT22;42920;45.306;20.448;2022-10-16T03:28:24;333.50;2329.60
57030;DHT22;42920;45.306;20.448;2022-10-16T03:30:50;333.50;2329.60
57030;DHT22;42920;45.306;20.448;2022-10-16T03:33:16;333.50;2329.60
57030;DHT22;42920;45.306;20.448;2022-10-16T03:35:41;333.50;2329.60
57030;DHT22;42920;45.306;20.448;2022-10-16T03:38:07;333.50;2329.60
57030;DHT22;42920;45.306;20.448;2022-10-16T03:40:33;333.50;2329.60
57030;DHT22;42920;45.306;20.448;2022-10-16T03:42:59;333.50;2329.60
57030;DHT22;42920;45.306;20.448;2022-10-16T03:45:25;333.50;2329.60
57030;DHT22;42920;45.306;20.448;2022-10-16T03:47:51;333.50;2329.60
57030;DHT22;42920;45.306;20.448;2022-10-16T03:50:17;333.30;2329.60
57030;DHT22;42920;45.306;20.448;2022-10-16T03:52:43;333.30;2329.60
57030;DHT22;42920;45.306;20.448;2022-10-16T03:55:08;333.20;2329.60
57030;DHT22;42920;45.306;20.448;2022-10-16T03:57:34;333.20;2329.60
57030;DHT22;42920;45.306;20.448;2022-10-16T04:00:00;333.10;2329.60
57030;DHT22;42920;45.306;20.448;2022-10-16T04:02:26;333.00;2329.60
57030;DHT22;42920;45.306;20.448;2022-10-16T04:04:52;332.90;2329.60
57030;DHT22;42920;45.306;20.448;2022-10-16T04:07:18;332.90;2329.60
57030;DHT22;42920;45.306;20.448;2022-10-16T04:09:43;332.90;2329.60
57030;DHT22;42920;45.306;20.448;2022-10-16T04:12:09;332.90;2329.60
57030;DHT22;42920;45.306;20.448;2022-10-16T04:14:35;332.90;2329.60
57030;DHT22;42920;45.306;20.448;2022-10-16T04:17:00;332.90;2329.60
57030;DHT22;42920;45.306;20.448;2022-10-16T04:19:26;332.90;2329.60
57030;DHT22;42920;45.306;20.448;2022-10-16T04:21:52;332.90;2329.60
57030;DHT22;42920;45.306;20.448;2022-10-16T04:24:18;333.00;2329.60
57030;DHT22;42920;45.306;20.448;2022-10-16T04:26:43;333.00;2329.60
57030;DHT22;42920;45.306;20.448;2022-10-16T04:29:09;333.10;2329.60
57030;DHT22;42920;45.306;20.448;2022-10-16T04:31:35;333.10;2329.60
57030;DHT22;42920;45.306;20.448;2022-10-16T04:34:00;333.20;2329.60
57030;DHT22;42920;45.306;20.448;2022-10-16T04:36:26;333.20;2329.60
57030;DHT22;42920;45.306;20.448;2022-10-16T04:38:52;333.30;2329.60
57030;DHT22;42920;45.306;20.448;2022-10-16T04:41:18;333.30;2329.60
57030;DHT22;42920;45.306;20.448;2022-10-16T04:43:43;333.30;2329.60
57030;DHT22;42920;45.306;20.448;2022-10-16T04:46:09;333.30;2329.60
57030;DHT22;42920;45.306;20.448;2022-10-16T04:48:35;333.30;2329.60
57030;DHT22;42920;45.306;20.448;2022-10-16T04:51:01;333.30;2329.60
57030;DHT22;42920;45.306;20.448;2022-10-16T04:53:27;333.30;2329.60
57030;DHT22;42920;45.306;20.448;2022-10-16T04:55:52;333.30;2329.60
57030;DHT22;42920;45.306;20.448;2022-10-16T04:58:18;333.30;2329.60
57030;DHT22;42920;45.306;20.448;2022-10-16T05:00:45;333.30;2329.60
57030;DHT22;42920;45.306;20.448;2022-10-16T05:03:12;333.30;2329.60
57030;DHT22;42920;45.306;20.448;2022-10-16T05:05:43;333.20;2329.60
57030;DHT22;42920;45.306;20.448;2022-10-16T05:08:11;333.20;2329.60
57030;DHT22;42920;45.306;20.448;2022-10-16T05:10:37;333.20;2329.60
57030;DHT22;42920;45.306;20.448;2022-10-16T05:13:03;333.20;2329.60
57030;DHT22;42920;45.306;20.448;2022-10-16T05:15:29;333.20;2329.60
57030;DHT22;42920;45.306;20.448;2022-10-16T05:17:55;333.20;2329.60
57030;DHT22;42920;45.306;20.448;2022-10-16T05:20:22;333.20;2329.60
57030;DHT22;42920;45.306;20.448;2022-10-16T05:22:48;333.20;2329.60
57030;DHT22;42920;45.306;20.448;2022-10-16T05:25:13;333.20;2329.60
57030;DHT22;42920;45.306;20.448;2022-10-16T05:27:39;333.10;2329.60
57030;DHT22;42920;45.306;20.448;2022-10-16T05:30:05;333.10;2329.60
57030;DHT22;42920;45.306;20.448;2022-10-16T05:32:31;333.10;2329.60
57030;DHT22;42920;45.306;20.448;2022-10-16T05:34:57;333.00;2329.60
57030;DHT22;42920;45.306;20.448;2022-10-16T05:37:25;333.00;2329.60
57030;DHT22;42920;45.306;20.448;2022-10-16T05:39:52;333.00;2329.60
57030;DHT22;42920;45.306;20.448;2022-10-16T05:42:18;333.00;2329.60
57030;DHT22;42920;45.306;20.448;2022-10-16T05:44:44;333.10;2329.60
57030;DHT22;42920;45.306;20.448;2022-10-16T05:47:12;333.10;2329.60
57030;DHT22;42920;45.306;20.448;2022-10-16T05:49:38;333.20;2329.60
57030;DHT22;42920;45.306;20.448;2022-10-16T05:52:04;333.30;2329.60
57030;DHT22;42920;45.306;20.448;2022-10-16T05:54:29;333.30;2329.60
57030;DHT22;42920;45.306;20.448;2022-10-16T05:56:55;333.40;2329.60
57030;DHT22;42920;45.306;20.448;2022-10-16T05:59:21;333.40;2329.60
57030;DHT22;42920;45.306;20.448;2022-10-16T06:01:46;333.50;2329.60
57030;DHT22;42920;45.306;20.448;2022-10-16T06:04:12;333.50;2329.60
57030;DHT22;42920;45.306;20.448;2022-10-16T06:06:38;333.60;2329.60
57030;DHT22;42920;45.306;20.448;2022-10-16T06:09:04;333.70;2329.60
57030;DHT22;42920;45.306;20.448;2022-10-16T06:11:31;333.70;2329.60
57030;DHT22;42920;45.306;20.448;2022-10-16T06:13:59;358.40;2329.60
57030;DHT22;42920;45.306;20.448;2022-10-16T06:16:27;358.50;2329.60
57030;DHT22;42920;45.306;20.448;2022-10-16T06:18:54;358.50;2329.60
57030;DHT22;42920;45.306;20.448;2022-10-16T06:21:25;358.60;2329.60
57030;DHT22;42920;45.306;20.448;2022-10-16T06:23:52;358.70;2329.60
57030;DHT22;42920;45.306;20.448;2022-10-16T06:26:20;358.60;2329.60
57030;DHT22;42920;45.306;20.448;2022-10-16T06:28:46;358.60;2329.60
57030;DHT22;42920;45.306;20.448;2022-10-16T06:31:13;358.70;2329.60
57030;DHT22;42920;45.306;20.448;2022-10-16T06:33:39;358.80;2329.60
57030;DHT22;42920;45.306;20.448;2022-10-16T06:36:12;358.80;2329.60
57030;DHT22;42920;45.306;20.448;2022-10-16T06:38:40;358.90;2329.60
57030;DHT22;42920;45.306;20.448;2022-10-16T06:41:07;358.90;2329.60
57030;DHT22;42920;45.306;20.448;2022-10-16T06:43:33;359.00;2329.60
57030;DHT22;42920;45.306;20.448;2022-10-16T06:46:03;359.00;2329.60
57030;DHT22;42920;45.306;20.448;2022-10-16T06:48:30;359.10;2329.60
57030;DHT22;42920;45.306;20.448;2022-10-16T06:53:35;359.20;2329.60
57030;DHT22;42920;45.306;20.448;2022-10-16T06:56:19;384.00;2329.60
57030;DHT22;42920;45.306;20.448;2022-10-16T06:58:45;384.20;2329.60
57030;DHT22;42920;45.306;20.448;2022-10-16T07:01:12;384.30;2329.60
57030;DHT22;42920;45.306;20.448;2022-10-16T07:03:39;384.40;2329.60
57030;DHT22;42920;45.306;20.448;2022-10-16T07:06:07;384.50;2329.60
57030;DHT22;42920;45.306;20.448;2022-10-16T07:08:34;384.70;2329.60
57030;DHT22;42920;45.306;20.448;2022-10-16T07:11:02;384.90;2329.60
57030;DHT22;42920;45.306;20.448;2022-10-16T07:13:28;384.90;2329.60
57030;DHT22;42920;45.306;20.448;2022-10-16T07:15:54;409.60;2355.20
57030;DHT22;42920;45.306;20.448;2022-10-16T07:18:20;409.70;2355.20
57030;DHT22;42920;45.306;20.448;2022-10-16T07:20:46;409.80;2355.20
57030;DHT22;42920;45.306;20.448;2022-10-16T07:23:11;410.00;2355.20
57030;DHT22;42920;45.306;20.448;2022-10-16T07:25:37;410.00;2355.20
57030;DHT22;42920;45.306;20.448;2022-10-16T07:28:03;410.00;2355.20
57030;DHT22;42920;45.306;20.448;2022-10-16T07:30:29;410.20;2355.20
57030;DHT22;42920;45.306;20.448;2022-10-16T07:32:54;410.30;2355.20
57030;DHT22;42920;45.306;20.448;2022-10-16T07:35:20;410.40;2355.20
57030;DHT22;42920;45.306;20.448;2022-10-16T07:37:46;410.40;2355.20
57030;DHT22;42920;45.306;20.448;2022-10-16T07:40:12;410.40;2355.20
57030;DHT22;42920;45.306;20.448;2022-10-16T07:42:38;410.40;2355.20
57030;DHT22;42920;45.306;20.448;2022-10-16T07:45:04;410.50;2355.20
57030;DHT22;42920;45.306;20.448;2022-10-16T07:47:30;410.50;2355.20
57030;DHT22;42920;45.306;20.448;2022-10-16T07:49:56;410.50;2355.20
57030;DHT22;42920;45.306;20.448;2022-10-16T07:52:22;410.50;2355.20
57030;DHT22;42920;45.306;20.448;2022-10-16T07:54:47;435.20;2355.20
57030;DHT22;42920;45.306;20.448;2022-10-16T07:57:13;435.20;2355.20
57030;DHT22;42920;45.306;20.448;2022-10-16T07:59:45;435.20;2355.20
57030;DHT22;42920;45.306;20.448;2022-10-16T08:02:11;435.30;2355.20
57030;DHT22;42920;45.306;20.448;2022-10-16T08:04:37;435.30;2355.20
57030;DHT22;42920;45.306;20.448;2022-10-16T08:07:03;435.40;2355.20
57030;DHT22;42920;45.306;20.448;2022-10-16T08:09:28;435.50;2355.20
57030;DHT22;42920;45.306;20.448;2022-10-16T08:11:54;435.50;2355.20
57030;DHT22;42920;45.306;20.448;2022-10-16T08:14:20;435.50;2355.20
57030;DHT22;42920;45.306;20.448;2022-10-16T08:16:45;435.50;2355.20
57030;DHT22;42920;45.306;20.448;2022-10-16T08:19:12;435.60;2355.20
57030;DHT22;42920;45.306;20.448;2022-10-16T08:21:39;435.70;2355.20
57030;DHT22;42920;45.306;20.448;2022-10-16T08:24:05;435.80;2355.20
57030;DHT22;42920;45.306;20.448;2022-10-16T08:26:30;435.80;2355.20
57030;DHT22;42920;45.306;20.448;2022-10-16T08:28:56;435.80;2355.20
57030;DHT22;42920;45.306;20.448;2022-10-16T08:31:22;435.90;2355.20
57030;DHT22;42920;45.306;20.448;2022-10-16T08:33:48;436.00;2355.20
57030;DHT22;42920;45.306;20.448;2022-10-16T08:36:15;436.00;2355.20
57030;DHT22;42920;45.306;20.448;2022-10-16T08:38:41;436.10;2355.20
57030;DHT22;42920;45.306;20.448;2022-10-16T08:49:11;460.90;2380.80
57030;DHT22;42920;45.306;20.448;2022-10-16T08:51:37;461.00;2380.80
57030;DHT22;42920;45.306;20.448;2022-10-16T08:56:47;461.10;2380.80
57030;DHT22;42920;45.306;20.448;2022-10-16T08:59:14;461.20;2380.80
57030;DHT22;42920;45.306;20.448;2022-10-16T09:01:44;461.30;2252.80
57030;DHT22;42920;45.306;20.448;2022-10-16T09:12:25;486.40;2150.40
57030;DHT22;42920;45.306;20.448;2022-10-16T09:25:30;487.00;2022.40
57030;DHT22;42920;45.306;20.448;2022-10-16T09:27:56;487.00;1996.80
57030;DHT22;42920;45.306;20.448;2022-10-16T09:30:22;487.20;1996.80
57030;DHT22;42920;45.306;20.448;2022-10-16T09:32:52;487.10;1945.60
57030;DHT22;42920;45.306;20.448;2022-10-16T09:35:31;487.30;1996.80
57030;DHT22;42920;45.306;20.448;2022-10-16T09:37:57;512.00;1971.20
57030;DHT22;42920;45.306;20.448;2022-10-16T09:40:39;512.10;1971.20
57030;DHT22;42920;45.306;20.448;2022-10-16T09:43:18;512.20;1920.00
57030;DHT22;42920;45.306;20.448;2022-10-16T09:45:58;512.20;1894.40
57030;DHT22;42920;45.306;20.448;2022-10-16T09:48:28;512.40;1920.00
57030;DHT22;42920;45.306;20.448;2022-10-16T09:50:58;512.70;1971.20
57030;DHT22;42920;45.306;20.448;2022-10-16T09:53:26;512.80;1868.80
57030;DHT22;42920;45.306;20.448;2022-10-16T09:56:02;512.70;1792.00
57030;DHT22;42920;45.306;20.448;2022-10-16T09:58:30;537.60;1817.60
57030;DHT22;42920;45.306;20.448;2022-10-16T10:00:58;537.60;1817.60
57030;DHT22;42920;45.306;20.448;2022-10-16T10:11:52;538.20;1715.20
57030;DHT22;42920;45.306;20.448;2022-10-16T10:15:10;538.20;1689.60
57030;DHT22;42920;45.306;20.448;2022-10-16T10:20:00;538.30;1664.00
57030;DHT22;42920;45.306;20.448;2022-10-16T10:22:43;538.50;1664.00
57030;DHT22;42920;45.306;20.448;2022-10-16T10:30:38;563.50;1664.00
57030;DHT22;42920;45.306;20.448;2022-10-16T10:33:20;563.50;1612.80
57030;DHT22;42920;45.306;20.448;2022-10-16T10:44:11;563.80;1561.60
57030;DHT22;42920;45.306;20.448;2022-10-16T10:47:10;563.90;1587.20
57030;DHT22;42920;45.306;20.448;2022-10-16T10:52:47;588.80;1561.60
57030;DHT22;42920;45.306;20.448;2022-10-16T11:03:59;589.10;1484.80
57030;DHT22;42920;45.306;20.448;2022-10-16T11:06:48;589.10;1484.80
57030;DHT22;42920;45.306;20.448;2022-10-16T11:09:36;589.20;1484.80
57030;DHT22;42920;45.306;20.448;2022-10-16T11:12:12;589.60;1484.80
57030;DHT22;42920;45.306;20.448;2022-10-16T11:17:38;589.50;1484.80
57030;DHT22;42920;45.306;20.448;2022-10-16T11:20:24;589.60;1484.80
57030;DHT22;42920;45.306;20.448;2022-10-16T11:23:02;589.70;1484.80
57030;DHT22;42920;45.306;20.448;2022-10-16T11:25:32;589.70;1459.20
57030;DHT22;42920;45.306;20.448;2022-10-16T11:30:55;589.70;1459.20
57030;DHT22;42920;45.306;20.448;2022-10-16T11:33:43;589.70;1459.20
57030;DHT22;42920;45.306;20.448;2022-10-16T11:36:18;614.40;1459.20
57030;DHT22;42920;45.306;20.448;2022-10-16T11:50:28;614.90;1408.00
57030;DHT22;42920;45.306;20.448;2022-10-16T11:53:35;614.80;1433.60
57030;DHT22;42920;45.306;20.448;2022-10-16T11:56:05;614.80;1408.00
57030;DHT22;42920;45.306;20.448;2022-10-16T12:01:43;614.90;1408.00
57030;DHT22;42920;45.306;20.448;2022-10-16T12:04:31;614.80;1433.60
57030;DHT22;42920;45.306;20.448;2022-10-16T12:07:21;614.60;1382.40
57030;DHT22;42920;45.306;20.448;2022-10-16T12:09:48;614.50;1408.00
57030;DHT22;42920;45.306;20.448;2022-10-16T12:12:27;614.50;1408.00
57030;DHT22;42920;45.306;20.448;2022-10-16T12:15:22;614.50;1433.60
57030;DHT22;42920;45.306;20.448;2022-10-16T12:17:49;614.40;1408.00
57030;DHT22;42920;45.306;20.448;2022-10-16T12:20:22;614.50;1408.00
57030;DHT22;42920;45.306;20.448;2022-10-16T12:22:57;614.50;1408.00
57030;DHT22;42920;45.306;20.448;2022-10-16T12:25:25;614.80;1408.00
57030;DHT22;42920;45.306;20.448;2022-10-16T12:30:27;614.60;1408.00
57030;DHT22;42920;45.306;20.448;2022-10-16T12:33:53;614.50;1408.00
57030;DHT22;42920;45.306;20.448;2022-10-16T12:35:46;614.50;1433.60
57030;DHT22;42920;45.306;20.448;2022-10-16T12:38:37;614.50;1408.00
57030;DHT22;42920;45.306;20.448;2022-10-16T12:41:08;614.60;1459.20
57030;DHT22;42920;45.306;20.448;2022-10-16T12:43:36;614.60;1433.60
57030;DHT22;42920;45.306;20.448;2022-10-16T12:46:23;614.60;1433.60
57030;DHT22;42920;45.306;20.448;2022-10-16T12:48:49;614.70;1433.60
57030;DHT22;42920;45.306;20.448;2022-10-16T12:51:25;614.50;1408.00
57030;DHT22;42920;45.306;20.448;2022-10-16T12:54:15;614.50;1433.60
57030;DHT22;42920;45.306;20.448;2022-10-16T12:59:19;589.70;1433.60
57030;DHT22;42920;45.306;20.448;2022-10-16T13:07:28;589.70;1484.80
57030;DHT22;42920;45.306;20.448;2022-10-16T13:10:51;589.70;1459.20
57030;DHT22;42920;45.306;20.448;2022-10-16T13:14:03;589.60;1459.20
57030;DHT22;42920;45.306;20.448;2022-10-16T13:16:51;589.50;1459.20
57030;DHT22;42920;45.306;20.448;2022-10-16T13:22:05;589.40;1459.20
57030;DHT22;42920;45.306;20.448;2022-10-16T13:30:20;589.20;1510.40
57030;DHT22;42920;45.306;20.448;2022-10-16T13:32:48;589.10;1484.80
57030;DHT22;42920;45.306;20.448;2022-10-16T13:35:26;589.00;1484.80
57030;DHT22;42920;45.306;20.448;2022-10-16T13:38:11;588.80;1510.40
57030;DHT22;42920;45.306;20.448;2022-10-16T13:40:52;588.80;1510.40
57030;DHT22;42920;45.306;20.448;2022-10-16T13:43:19;588.90;1536.00
57030;DHT22;42920;45.306;20.448;2022-10-16T13:46:02;564.10;1536.00
57030;DHT22;42920;45.306;20.448;2022-10-16T13:48:30;564.10;1536.00
57030;DHT22;42920;45.306;20.448;2022-10-16T13:51:05;564.10;1536.00
57030;DHT22;42920;45.306;20.448;2022-10-16T13:53:34;564.00;1536.00
57030;DHT22;42920;45.306;20.448;2022-10-16T13:56:01;564.00;1536.00
57030;DHT22;42920;45.306;20.448;2022-10-16T13:58:27;563.90;1536.00
57030;DHT22;42920;45.306;20.448;2022-10-16T14:01:02;563.80;1561.60
57030;DHT22;42920;45.306;20.448;2022-10-16T14:03:30;563.80;1561.60
57030;DHT22;42920;45.306;20.448;2022-10-16T14:06:00;563.80;1561.60
57030;DHT22;42920;45.306;20.448;2022-10-16T14:08:28;563.80;1561.60
57030;DHT22;42920;45.306;20.448;2022-10-16T14:10:56;563.70;1587.20
57030;DHT22;42920;45.306;20.448;2022-10-16T14:13:37;563.60;1587.20
57030;DHT22;42920;45.306;20.448;2022-10-16T14:16:15;563.60;1561.60
57030;DHT22;42920;45.306;20.448;2022-10-16T14:18:46;563.60;1561.60
57030;DHT22;42920;45.306;20.448;2022-10-16T14:21:16;563.50;1561.60
57030;DHT22;42920;45.306;20.448;2022-10-16T14:23:42;563.50;1587.20
57030;DHT22;42920;45.306;20.448;2022-10-16T14:28:35;563.40;1587.20
57030;DHT22;42920;45.306;20.448;2022-10-16T14:31:14;563.40;1587.20
57030;DHT22;42920;45.306;20.448;2022-10-16T14:33:45;563.30;1587.20
57030;DHT22;42920;45.306;20.448;2022-10-16T14:36:12;563.30;1587.20
57030;DHT22;42920;45.306;20.448;2022-10-16T14:38:40;563.20;1612.80
57030;DHT22;42920;45.306;20.448;2022-10-16T14:41:06;563.30;1587.20
57030;DHT22;42920;45.306;20.448;2022-10-16T14:43:41;563.20;1638.40
57030;DHT22;42920;45.306;20.448;2022-10-16T14:46:14;563.20;1664.00
57030;DHT22;42920;45.306;20.448;2022-10-16T14:48:42;563.20;1664.00
57030;DHT22;42920;45.306;20.448;2022-10-16T14:51:13;563.30;1638.40
57030;DHT22;42920;45.306;20.448;2022-10-16T14:53:40;538.50;1638.40
57030;DHT22;42920;45.306;20.448;2022-10-16T14:56:19;538.40;1612.80
57030;DHT22;42920;45.306;20.448;2022-10-16T14:58:47;538.40;1612.80
57030;DHT22;42920;45.306;20.448;2022-10-16T15:01:13;538.40;1612.80
57030;DHT22;42920;45.306;20.448;2022-10-16T15:03:38;538.30;1638.40
57030;DHT22;42920;45.306;20.448;2022-10-16T15:06:13;538.30;1638.40
57030;DHT22;42920;45.306;20.448;2022-10-16T15:08:39;538.30;1664.00
57030;DHT22;42920;45.306;20.448;2022-10-16T15:11:10;538.20;1664.00
57030;DHT22;42920;45.306;20.448;2022-10-16T15:13:37;538.10;1664.00
57030;DHT22;42920;45.306;20.448;2022-10-16T15:16:03;538.00;1689.60
57030;DHT22;42920;45.306;20.448;2022-10-16T15:18:29;538.00;1689.60
57030;DHT22;42920;45.306;20.448;2022-10-16T15:20:55;537.90;1715.20
57030;DHT22;42920;45.306;20.448;2022-10-16T15:23:22;537.80;1740.80
57030;DHT22;42920;45.306;20.448;2022-10-16T15:25:53;537.70;1766.40
57030;DHT22;42920;45.306;20.448;2022-10-16T15:28:21;537.70;1792.00
57030;DHT22;42920;45.306;20.448;2022-10-16T15:30:50;537.60;1817.60
57030;DHT22;42920;45.306;20.448;2022-10-16T15:33:18;512.90;1843.20
57030;DHT22;42920;45.306;20.448;2022-10-16T15:35:48;512.90;1868.80
57030;DHT22;42920;45.306;20.448;2022-10-16T15:38:15;512.70;1894.40
57030;DHT22;42920;45.306;20.448;2022-10-16T15:40:42;512.60;1920.00
57030;DHT22;42920;45.306;20.448;2022-10-16T15:43:07;512.50;1971.20
57030;DHT22;42920;45.306;20.448;2022-10-16T15:45:34;512.30;1996.80
57030;DHT22;42920;45.306;20.448;2022-10-16T15:48:00;512.20;1996.80
57030;DHT22;42920;45.306;20.448;2022-10-16T15:50:26;512.10;1996.80
57030;DHT22;42920;45.306;20.448;2022-10-16T15:52:52;512.00;2022.40
57030;DHT22;42920;45.306;20.448;2022-10-16T15:55:18;487.20;2048.00
57030;DHT22;42920;45.306;20.448;2022-10-16T15:57:45;487.10;2099.20
57030;DHT22;42920;45.306;20.448;2022-10-16T16:00:17;487.10;2099.20
57030;DHT22;42920;45.306;20.448;2022-10-16T16:02:44;487.00;2124.80
57030;DHT22;42920;45.306;20.448;2022-10-16T16:05:15;486.90;2150.40
57030;DHT22;42920;45.306;20.448;2022-10-16T16:07:40;486.70;2176.00
57030;DHT22;42920;45.306;20.448;2022-10-16T16:10:08;486.70;2201.60
57030;DHT22;42920;45.306;20.448;2022-10-16T16:12:35;486.50;2201.60
57030;DHT22;42920;45.306;20.448;2022-10-16T16:15:01;486.40;2252.80
57030;DHT22;42920;45.306;20.448;2022-10-16T16:17:27;461.70;2278.40
57030;DHT22;42920;45.306;20.448;2022-10-16T16:19:53;461.60;2329.60
57030;DHT22;42920;45.306;20.448;2022-10-16T16:22:19;461.50;2329.60
57030;DHT22;42920;45.306;20.448;2022-10-16T16:24:44;461.40;2329.60
57030;DHT22;42920;45.306;20.448;2022-10-16T16:27:10;461.30;2380.80
57030;DHT22;42920;45.306;20.448;2022-10-16T16:29:36;461.20;2380.80
57030;DHT22;42920;45.306;20.448;2022-10-16T16:32:02;461.20;2380.80
57030;DHT22;42920;45.306;20.448;2022-10-16T16:34:28;461.10;2380.80
57030;DHT22;42920;45.306;20.448;2022-10-16T16:36:55;461.10;2380.80
57030;DHT22;42920;45.306;20.448;2022-10-16T16:39:22;461.00;2380.80
57030;DHT22;42920;45.306;20.448;2022-10-16T16:41:48;461.00;2380.80
57030;DHT22;42920;45.306;20.448;2022-10-16T16:44:14;460.90;2380.80
57030;DHT22;42920;45.306;20.448;2022-10-16T16:46:42;460.90;2380.80
57030;DHT22;42920;45.306;20.448;2022-10-16T16:49:10;460.80;2380.80
57030;DHT22;42920;45.306;20.448;2022-10-16T16:51:37;460.80;2380.80
57030;DHT22;42920;45.306;20.448;2022-10-16T16:54:03;436.10;2355.20
57030;DHT22;42920;45.306;20.448;2022-10-16T16:56:29;436.00;2355.20
57030;DHT22;42920;45.306;20.448;2022-10-16T16:58:56;436.00;2355.20